Terminal Aerodrome Forecast
Issued by NWS

Home | Current Version | Previous Version | Text Only | Print | Product List | Glossary On
Versions: 1 2 3 4 5 6 7 8 9 10 11 12 13 14 15 16 17 18 19 20 21 22 23 24 25 26 27
000
FTUS41 KRLX 262333
TAFCKB
TAF
KCKB 262333Z 2700/2724 29008KT P6SM OVC050
     FM270600 VRB03KT 4SM BR SCT001
     FM270700 VRB03KT 2SM BR SCT001
     FM270800 VRB03KT 1/4SM FG SCT001
     FM271300 20005KT 2SM BR FEW003
     FM271400 21005KT P6SM SKC=

USA.gov is the U.S. government's official web portal to all federal, state and local government web resources and services.